Time;durP1;ratioP1;P1;durP2;ratioP2;P2;SDS_P1;SDS_P2;PMS_P1;PMS_P2;Temp;Humidity;BMP_temperature;BMP_pressure;BME280_temperature;BME280_humidity;BME280_pressure;Samples;Min_cycle;Max_cycle;Signal;HPM_P1;HPM_P2
2023/01/20 00:00:07;;;;;;;78.43;10.93;;;;;;;-148.24;100.00;61531.34;4976465;28;20100;-55
2023/01/20 00:02:32;;;;;;;83.13;11.50;;;;;;;-148.24;100.00;61531.34;4972960;28;20038;-54
2023/01/20 00:04:58;;;;;;;63.60;8.85;;;;;;;-148.24;100.00;61531.34;4974443;28;20037;-54
2023/01/20 00:07:23;;;;;;;73.03;9.48;;;;;;;-148.24;100.00;61531.34;4975973;28;20377;-53
2023/01/20 00:09:48;;;;;;;72.25;10.02;;;;;;;-148.24;100.00;61531.34;4978854;28;20123;-54
2023/01/20 00:12:14;;;;;;;70.65;9.70;;;;;;;-148.24;100.00;61531.34;4976979;28;20058;-53
2023/01/20 00:14:39;;;;;;;75.72;9.55;;;;;;;-148.24;100.00;61531.34;4974980;28;20073;-53
2023/01/20 00:17:04;;;;;;;59.83;9.80;;;;;;;-148.24;100.00;61531.34;4977728;28;20934;-53
2023/01/20 00:19:30;;;;;;;74.18;11.15;;;;;;;-148.24;100.00;61531.34;4976791;28;20521;-53
2023/01/20 00:21:55;;;;;;;61.03;9.60;;;;;;;-148.24;100.00;61531.34;4978494;28;20999;-53
2023/01/20 00:24:20;;;;;;;54.35;7.85;;;;;;;-148.24;100.00;61531.34;4975054;28;20022;-53
2023/01/20 00:26:46;;;;;;;79.63;10.75;;;;;;;-148.24;100.00;61531.34;4971363;28;20107;-54
2023/01/20 00:29:11;;;;;;;66.95;9.63;;;;;;;-148.24;100.00;61531.34;4976369;28;20034;-56
2023/01/20 00:31:37;;;;;;;56.40;8.15;;;;;;;-148.24;100.00;61531.34;4974026;28;20038;-54
2023/01/20 00:34:04;;;;;;;76.80;9.40;;;;;;;-148.24;100.00;61531.34;4975610;28;20026;-54
2023/01/20 00:36:30;;;;;;;74.03;9.38;;;;;;;-148.24;100.00;61531.34;4974799;28;20042;-56
2023/01/20 00:38:56;;;;;;;76.32;9.50;;;;;;;-148.24;100.00;61531.34;4971847;28;20034;-55
2023/01/20 00:41:22;;;;;;;73.20;10.02;;;;;;;-148.24;100.00;61531.34;4974751;28;20049;-54
2023/01/20 00:43:48;;;;;;;72.30;9.57;;;;;;;-148.24;100.00;61531.34;4979666;28;20439;-55
2023/01/20 00:46:14;;;;;;;75.57;9.73;;;;;;;-148.24;100.00;61531.34;4976688;28;20708;-56
2023/01/20 00:48:40;;;;;;;61.92;9.90;;;;;;;-148.24;100.00;61531.34;4974649;28;20026;-54
2023/01/20 00:51:07;;;;;;;84.25;10.93;;;;;;;-148.24;100.00;61531.34;4978081;28;20061;-55
2023/01/20 00:53:32;;;;;;;73.10;10.48;;;;;;;-148.24;100.00;61531.34;4974143;28;20074;-54
2023/01/20 00:55:58;;;;;;;71.78;9.98;;;;;;;-148.24;100.00;61531.34;4973801;28;20054;-55
2023/01/20 00:58:24;;;;;;;75.00;10.63;;;;;;;-148.24;100.00;61531.34;4979533;28;20030;-54
2023/01/20 01:00:51;;;;;;;62.75;9.70;;;;;;;-148.24;100.00;61531.34;4974556;28;20031;-55
2023/01/20 01:03:17;;;;;;;71.72;9.50;;;;;;;-148.24;100.00;61531.34;4975817;28;20061;-55
2023/01/20 01:05:43;;;;;;;71.05;10.55;;;;;;;-148.24;100.00;61531.34;4980825;28;20976;-55
2023/01/20 01:08:08;;;;;;;65.82;9.98;;;;;;;-148.24;100.00;61531.34;4978310;28;20568;-56
2023/01/20 01:10:34;;;;;;;66.13;9.02;;;;;;;-148.24;100.00;61531.34;4979284;28;20035;-57
2023/01/20 01:13:01;;;;;;;67.25;9.20;;;;;;;-148.24;100.00;61531.34;4976764;28;20420;-59
2023/01/20 01:15:27;;;;;;;77.88;10.43;;;;;;;-148.24;100.00;61531.34;4975716;28;20039;-54
2023/01/20 01:17:53;;;;;;;67.57;9.13;;;;;;;-148.24;100.00;61531.34;4982887;28;20033;-54
2023/01/20 01:20:19;;;;;;;72.88;9.55;;;;;;;-148.24;100.00;61531.34;4979599;28;20026;-53
2023/01/20 01:22:44;;;;;;;70.65;9.23;;;;;;;-148.24;100.00;61531.34;4983466;28;20462;-54
2023/01/20 01:25:10;;;;;;;72.97;9.57;;;;;;;-148.24;100.00;61531.34;4979267;28;20329;-55
2023/01/20 01:27:35;;;;;;;81.18;10.55;;;;;;;-148.24;100.00;61531.34;4980105;28;20065;-56
2023/01/20 01:30:01;;;;;;;86.32;10.68;;;;;;;-148.24;100.00;61531.34;4982925;28;20022;-54
2023/01/20 01:32:27;;;;;;;76.97;10.20;;;;;;;-148.24;100.00;61531.34;4983647;28;20550;-54
2023/01/20 01:34:52;;;;;;;57.30;9.63;;;;;;;-148.24;100.00;61531.34;4978126;28;20034;-55
2023/01/20 01:37:18;;;;;;;63.22;9.75;;;;;;;-148.24;100.00;61531.34;4978687;28;20451;-56
2023/01/20 01:39:43;;;;;;;87.05;10.93;;;;;;;-148.24;100.00;61531.34;4980657;28;20514;-55
2023/01/20 01:42:14;;;;;;;63.65;9.30;;;;;;;-148.24;100.00;61531.34;4981477;28;20034;-55
2023/01/20 01:45:16;;;;;;;80.80;10.93;;;;;;;-148.24;100.00;61531.34;4976035;28;20030;-56
2023/01/20 01:47:53;;;;;;;93.65;10.88;;;;;;;-148.24;100.00;61531.34;4981053;28;20691;-54
2023/01/20 01:50:41;;;;;;;65.95;9.40;;;;;;;-148.24;100.00;61531.34;4981545;28;20034;-54
2023/01/20 01:53:08;;;;;;;58.22;9.45;;;;;;;-148.24;100.00;61531.34;4980831;28;20030;-56
2023/01/20 01:55:38;;;;;;;68.18;10.20;;;;;;;-148.24;100.00;61531.34;4978321;28;20034;-56
2023/01/20 01:58:06;;;;;;;66.25;10.30;;;;;;;-148.24;100.00;61531.34;4983268;28;20029;-55
2023/01/20 02:00:32;;;;;;;68.82;9.52;;;;;;;-148.24;100.00;61531.34;4977010;28;20050;-54
2023/01/20 02:02:57;;;;;;;93.95;11.85;;;;;;;-148.24;100.00;61531.34;4981564;28;20196;-54
2023/01/20 02:05:24;;;;;;;63.90;9.77;;;;;;;-148.24;100.00;61531.34;4982286;28;20027;-55
2023/01/20 02:07:50;;;;;;;66.40;10.07;;;;;;;-148.24;100.00;61531.34;4981958;28;20455;-58
2023/01/20 02:10:16;;;;;;;75.90;10.30;;;;;;;-148.24;100.00;61531.34;4977045;28;20044;-55
2023/01/20 02:12:48;;;;;;;71.90;9.88;;;;;;;-148.24;100.00;61531.34;4977221;28;20011;-55
2023/01/20 02:15:14;;;;;;;65.60;10.27;;;;;;;-148.24;100.00;61531.34;4979472;28;20048;-61
2023/01/20 02:18:18;;;;;;;63.80;8.98;;;;;;;-148.24;100.00;61531.34;4982641;28;20049;-56
2023/01/20 02:21:21;;;;;;;67.03;10.02;;;;;;;-148.24;100.00;61531.34;4977248;28;20686;-56
2023/01/20 02:24:11;;;;;;;67.28;9.90;;;;;;;-148.24;100.00;61531.34;4986963;28;20455;-55
2023/01/20 02:27:01;;;;;;;68.43;9.93;;;;;;;-148.24;100.00;61531.34;4980576;28;20097;-55
2023/01/20 02:30:00;;;;;;;66.63;10.63;;;;;;;-148.24;100.00;61531.34;4979542;28;20019;-54
2023/01/20 02:32:36;;;;;;;71.95;10.25;;;;;;;-148.24;100.00;61531.34;4979643;28;20049;-54
2023/01/20 02:35:10;;;;;;;65.15;10.13;;;;;;;-148.24;100.00;61531.34;4977477;28;20516;-54
2023/01/20 02:37:57;;;;;;;64.45;9.85;;;;;;;-148.24;100.00;61531.34;4981576;28;20048;-55
2023/01/20 02:40:38;;;;;;;86.00;11.80;;;;;;;-148.24;100.00;61531.34;4960615;28;20073;-58
2023/01/20 02:43:19;;;;;;;65.28;10.43;;;;;;;-148.24;100.00;61531.34;4981926;28;20019;-55
2023/01/20 02:46:02;;;;;;;70.13;9.90;;;;;;;-148.24;100.00;61531.34;4979500;28;20034;-54
2023/01/20 02:48:45;;;;;;;84.03;10.35;;;;;;;-148.24;100.00;61531.34;4978327;28;20033;-56
2023/01/20 02:51:19;;;;;;;67.03;9.52;;;;;;;-148.24;100.00;61531.34;4976953;28;20034;-54
2023/01/20 02:53:52;;;;;;;55.55;9.68;;;;;;;-148.24;100.00;61531.34;4979635;28;20054;-58
2023/01/20 02:56:22;;;;;;;78.95;10.32;;;;;;;-148.24;100.00;61531.34;4975050;28;20125;-55
2023/01/20 02:58:54;;;;;;;69.28;10.02;;;;;;;-148.24;100.00;61531.34;4977944;28;20026;-55
2023/01/20 03:01:25;;;;;;;74.88;10.80;;;;;;;-148.24;100.00;61531.34;4978543;28;20032;-54
2023/01/20 03:03:52;;;;;;;68.00;10.63;;;;;;;-148.24;100.00;61531.34;4978311;28;20576;-57
2023/01/20 03:06:23;;;;;;;63.10;10.35;;;;;;;-148.24;100.00;61531.34;4976139;28;20122;-54
2023/01/20 03:08:51;;;;;;;90.13;11.70;;;;;;;-148.24;100.00;61531.34;4970950;28;20736;-56
2023/01/20 03:11:17;;;;;;;70.88;10.00;;;;;;;-148.24;100.00;61531.34;4975936;28;20034;-56
2023/01/20 03:14:05;;;;;;;79.05;11.02;;;;;;;-148.24;100.00;61531.34;4977754;28;20508;-54
2023/01/20 03:16:31;;;;;;;63.33;8.00;;;;;;;-148.24;100.00;61531.34;4977646;28;20180;-55
2023/01/20 03:18:57;;;;;;;78.20;11.88;;;;;;;-148.24;100.00;61531.34;4977092;28;20221;-54
2023/01/20 03:21:22;;;;;;;75.82;11.52;;;;;;;-148.24;100.00;61531.34;4976084;28;20259;-56
2023/01/20 03:23:52;;;;;;;88.63;12.48;;;;;;;-148.24;100.00;61531.34;4979168;28;20029;-55
2023/01/20 03:26:20;;;;;;;69.05;11.82;;;;;;;-148.24;100.00;61531.34;4978207;28;20045;-55
2023/01/20 03:28:47;;;;;;;76.88;12.00;;;;;;;-148.24;100.00;61531.34;4977596;28;20072;-53
2023/01/20 03:31:28;;;;;;;71.75;12.15;;;;;;;-148.24;100.00;61531.34;4975690;28;20042;-57
2023/01/20 03:33:57;;;;;;;89.05;13.55;;;;;;;-148.24;100.00;61531.34;4972194;28;20038;-54
2023/01/20 03:36:26;;;;;;;72.50;12.32;;;;;;;-148.24;100.00;61531.34;4975375;28;20031;-56
2023/01/20 03:38:53;;;;;;;74.30;12.90;;;;;;;-148.24;100.00;61531.34;4979234;28;20041;-57
2023/01/20 03:41:53;;;;;;;72.53;11.73;;;;;;;-148.24;100.00;61531.34;4974568;28;20126;-54
2023/01/20 03:44:27;;;;;;;71.18;11.07;;;;;;;-148.24;100.00;61531.34;4971319;28;20038;-54
2023/01/20 03:46:59;;;;;;;68.95;12.05;;;;;;;-148.24;100.00;61531.34;4972172;28;20053;-54
2023/01/20 03:49:34;;;;;;;73.40;11.65;;;;;;;-148.24;100.00;61531.34;4981731;28;20514;-54
2023/01/20 03:52:07;;;;;;;75.90;12.07;;;;;;;-148.24;100.00;61531.34;4974218;28;20068;-54
2023/01/20 03:54:42;;;;;;;65.68;10.70;;;;;;;-148.24;100.00;61531.34;4978274;28;20061;-54
2023/01/20 03:57:17;;;;;;;82.55;12.00;;;;;;;-148.24;100.00;61531.34;4973878;28;20030;-54
2023/01/20 03:59:45;;;;;;;83.60;12.10;;;;;;;-148.24;100.00;61531.34;4978101;28;20483;-55
2023/01/20 04:02:10;;;;;;;69.32;11.90;;;;;;;-148.24;100.00;61531.34;4976372;28;20289;-54
2023/01/20 04:04:40;;;;;;;68.95;12.52;;;;;;;-148.24;100.00;61531.34;4979983;28;20042;-55
2023/01/20 04:07:09;;;;;;;67.43;12.00;;;;;;;-148.24;100.00;61531.34;4949150;28;20047;-55
2023/01/20 04:09:39;;;;;;;77.68;12.45;;;;;;;-148.24;100.00;61531.34;4975739;28;20053;-56
2023/01/20 04:12:05;;;;;;;68.20;11.68;;;;;;;-148.24;100.00;61531.34;4976007;28;20459;-54
2023/01/20 04:14:33;;;;;;;94.97;13.20;;;;;;;-148.24;100.00;61531.34;4979239;28;20694;-54
2023/01/20 04:16:58;;;;;;;77.57;11.88;;;;;;;-148.24;100.00;61531.34;4965305;28;20149;-55
2023/01/20 04:19:25;;;;;;;79.75;12.63;;;;;;;-148.24;100.00;61531.34;4975035;28;20049;-54
2023/01/20 04:22:13;;;;;;;75.50;13.20;;;;;;;-148.24;100.00;61531.34;4974050;28;20837;-52
2023/01/20 04:24:41;;;;;;;104.15;14.95;;;;;;;-148.24;100.00;61531.34;4975709;28;20424;-54
2023/01/20 04:27:07;;;;;;;75.55;13.75;;;;;;;-148.24;100.00;61531.34;4977622;28;20051;-54
2023/01/20 04:29:33;;;;;;;98.32;13.15;;;;;;;-148.24;100.00;61531.34;4977031;28;20077;-56
2023/01/20 04:31:59;;;;;;;71.50;12.85;;;;;;;-148.24;100.00;61531.34;4976323;28;20144;-54
2023/01/20 04:34:25;;;;;;;82.65;13.10;;;;;;;-148.24;100.00;61531.34;4981877;28;20273;-55
2023/01/20 04:36:50;;;;;;;71.60;11.80;;;;;;;-148.24;100.00;61531.34;4973971;28;20042;-53
2023/01/20 04:39:15;;;;;;;79.93;13.85;;;;;;;-148.24;100.00;61531.34;4978460;28;20022;-53
2023/01/20 04:41:41;;;;;;;84.03;13.55;;;;;;;-148.24;100.00;61531.34;4984901;28;20053;-55
2023/01/20 04:44:06;;;;;;;75.47;13.25;;;;;;;-148.24;100.00;61531.34;4978240;28;20023;-56
2023/01/20 04:46:31;;;;;;;84.70;13.20;;;;;;;-148.24;100.00;61531.34;4982696;28;20156;-54
2023/01/20 04:48:57;;;;;;;80.72;13.57;;;;;;;-148.24;100.00;61531.34;4981916;28;20872;-53
2023/01/20 04:51:22;;;;;;;90.20;13.52;;;;;;;-148.24;100.00;61531.34;4976519;28;20518;-55
2023/01/20 04:53:47;;;;;;;81.75;13.35;;;;;;;-148.24;100.00;61531.34;4978296;28;20033;-54
2023/01/20 04:56:14;;;;;;;77.43;13.30;;;;;;;-148.24;100.00;61531.34;4979414;28;20034;-55
2023/01/20 04:58:41;;;;;;;80.47;13.57;;;;;;;-148.24;100.00;61531.34;4982423;28;20021;-53
2023/01/20 05:01:07;;;;;;;59.25;12.75;;;;;;;-148.24;100.00;61531.34;4959842;28;20139;-53
2023/01/20 05:03:33;;;;;;;61.35;12.93;;;;;;;-148.24;100.00;61531.34;4978908;28;20092;-53
2023/01/20 05:05:58;;;;;;;87.10;13.18;;;;;;;-148.24;100.00;61531.34;4978991;28;20049;-54
2023/01/20 05:08:24;;;;;;;72.95;12.85;;;;;;;-148.24;100.00;61531.34;4979439;28;20030;-53
2023/01/20 05:10:49;;;;;;;81.53;13.20;;;;;;;-148.24;100.00;61531.34;4980430;28;20033;-53
2023/01/20 05:13:30;;;;;;;77.90;12.52;;;;;;;-148.24;100.00;61531.34;4956169;28;20077;-53
2023/01/20 05:15:56;;;;;;;81.50;12.75;;;;;;;-148.24;100.00;61531.34;4984211;28;20754;-56
2023/01/20 05:18:21;;;;;;;79.60;13.25;;;;;;;-148.24;100.00;61531.34;4981774;28;20026;-53
2023/01/20 05:20:48;;;;;;;64.82;12.43;;;;;;;-148.24;100.00;61531.34;4977926;28;20044;-53
2023/01/20 05:23:13;;;;;;;88.85;14.00;;;;;;;-148.24;100.00;61531.34;4979093;28;20030;-53
2023/01/20 05:25:39;;;;;;;75.53;12.95;;;;;;;-148.24;100.00;61531.34;4976139;28;20045;-54
2023/01/20 05:28:04;;;;;;;77.32;13.02;;;;;;;-148.24;100.00;61531.34;4983484;28;20053;-53
2023/01/20 05:30:29;;;;;;;89.80;14.52;;;;;;;-148.24;100.00;61531.34;4976999;28;20053;-54
2023/01/20 05:32:55;;;;;;;81.40;13.85;;;;;;;-148.24;100.00;61531.34;4982806;28;20812;-56
2023/01/20 05:35:20;;;;;;;103.03;14.70;;;;;;;-148.24;100.00;61531.34;4983063;28;20026;-54
2023/01/20 05:37:46;;;;;;;74.40;13.10;;;;;;;-148.24;100.00;61531.34;4981276;28;20142;-55
2023/01/20 05:40:12;;;;;;;73.60;13.35;;;;;;;-148.24;100.00;61531.34;4980122;28;20070;-56
2023/01/20 05:42:37;;;;;;;94.55;14.10;;;;;;;-148.24;100.00;61531.34;4975482;28;20117;-54
2023/01/20 05:45:03;;;;;;;68.68;12.43;;;;;;;-148.24;100.00;61531.34;4976364;28;20038;-53
2023/01/20 05:47:29;;;;;;;86.70;13.68;;;;;;;-148.24;100.00;61531.34;4974834;28;20120;-54
2023/01/20 05:49:54;;;;;;;96.60;14.05;;;;;;;-148.24;100.00;61531.34;4981130;28;20037;-55
2023/01/20 05:52:19;;;;;;;89.32;14.38;;;;;;;-148.24;100.00;61531.34;4982211;28;20345;-54
2023/01/20 05:54:45;;;;;;;79.20;14.57;;;;;;;-148.24;100.00;61531.34;4979629;28;20032;-53
2023/01/20 05:57:10;;;;;;;75.95;14.30;;;;;;;-148.24;100.00;61531.34;4975275;28;20039;-55
2023/01/20 05:59:35;;;;;;;93.28;16.40;;;;;;;-148.24;100.00;61531.34;4975677;28;20029;-54
2023/01/20 06:02:01;;;;;;;80.75;15.77;;;;;;;-148.24;100.00;61531.34;4982925;28;20069;-53
2023/01/20 06:04:26;;;;;;;83.95;15.30;;;;;;;-148.24;100.00;61531.34;4980463;28;20018;-54
2023/01/20 06:06:52;;;;;;;109.18;15.85;;;;;;;-148.24;100.00;61531.34;4979703;28;20067;-54
2023/01/20 06:09:17;;;;;;;86.22;14.77;;;;;;;-148.24;100.00;61531.34;4973739;28;20026;-55
2023/01/20 06:11:42;;;;;;;89.35;15.32;;;;;;;-148.24;100.00;61531.34;4975804;28;20045;-54
2023/01/20 06:14:08;;;;;;;78.88;14.02;;;;;;;-148.24;100.00;61531.34;4975136;28;20501;-56
2023/01/20 06:16:33;;;;;;;81.53;15.07;;;;;;;-148.24;100.00;61531.34;4976844;28;20042;-57
2023/01/20 06:18:59;;;;;;;89.70;15.38;;;;;;;-148.24;100.00;61531.34;4981048;28;20128;-56
2023/01/20 06:21:24;;;;;;;84.40;15.25;;;;;;;-148.24;100.00;61531.34;4977800;28;20511;-56
2023/01/20 06:23:50;;;;;;;84.68;14.10;;;;;;;-148.24;100.00;61531.34;4978686;28;20083;-54
2023/01/20 06:26:15;;;;;;;80.05;14.60;;;;;;;-148.24;100.00;61531.34;4979861;28;20038;-57
2023/01/20 06:28:41;;;;;;;71.78;12.80;;;;;;;-148.24;100.00;61531.34;4978947;28;20048;-53
2023/01/20 06:31:08;;;;;;;82.15;14.65;;;;;;;-148.24;100.00;61531.34;4976276;28;20700;-55
2023/01/20 06:33:34;;;;;;;76.63;14.00;;;;;;;-148.24;100.00;61531.34;4975211;28;20030;-56
2023/01/20 06:35:59;;;;;;;89.50;15.73;;;;;;;-148.24;100.00;61531.34;4978331;28;20259;-54
2023/01/20 06:38:28;;;;;;;81.68;14.65;;;;;;;-148.24;100.00;61531.34;4976415;28;20088;-55
2023/01/20 06:41:01;;;;;;;75.97;14.25;;;;;;;-148.24;100.00;61531.34;4979414;28;20035;-54
2023/01/20 06:43:28;;;;;;;86.50;14.63;;;;;;;-148.24;100.00;61531.34;4977293;28;20181;-54
2023/01/20 06:46:01;;;;;;;63.85;13.45;;;;;;;-148.24;100.00;61531.34;4973436;28;20713;-54
2023/01/20 06:48:27;;;;;;;68.63;12.35;;;;;;;-148.24;100.00;61531.34;4977693;28;20026;-55
2023/01/20 06:50:53;;;;;;;75.57;13.20;;;;;;;-148.24;100.00;61531.34;4976348;28;20514;-54
2023/01/20 06:53:18;;;;;;;91.22;14.10;;;;;;;-148.24;100.00;61531.34;4977363;28;20066;-56
2023/01/20 06:55:51;;;;;;;71.00;11.73;;;;;;;-148.24;100.00;61531.34;4975088;28;20511;-55
2023/01/20 06:58:17;;;;;;;102.50;14.98;;;;;;;-148.24;100.00;61531.34;4973715;28;20022;-58
2023/01/20 07:00:42;;;;;;;72.13;12.02;;;;;;;-148.24;100.00;61531.34;4975594;28;20030;-57
2023/01/20 07:03:07;;;;;;;75.95;12.55;;;;;;;-148.24;100.00;61531.34;4976383;28;20462;-55
2023/01/20 07:05:33;;;;;;;166.48;19.83;;;;;;;-148.24;100.00;61531.34;4970899;28;20119;-55
2023/01/20 07:07:58;;;;;;;87.90;13.50;;;;;;;-148.24;100.00;61531.34;4975872;28;20027;-57
2023/01/20 07:10:23;;;;;;;76.28;13.40;;;;;;;-148.24;100.00;61531.34;4977149;28;20033;-52
2023/01/20 07:12:49;;;;;;;73.40;12.70;;;;;;;-148.24;100.00;61531.34;4984439;28;20156;-53
2023/01/20 07:15:14;;;;;;;75.03;12.50;;;;;;;-148.24;100.00;61531.34;4977172;28;20056;-56
2023/01/20 07:17:40;;;;;;;79.28;13.02;;;;;;;-148.24;100.00;61531.34;4981257;28;20723;-54
2023/01/20 07:20:06;;;;;;;80.72;13.18;;;;;;;-148.24;100.00;61531.34;4975815;28;20034;-57
2023/01/20 07:22:31;;;;;;;88.80;14.20;;;;;;;-148.24;100.00;61531.34;4975075;28;20606;-54
2023/01/20 07:24:56;;;;;;;62.67;11.23;;;;;;;-148.24;100.00;61531.34;4983368;28;20053;-56
2023/01/20 07:27:22;;;;;;;72.05;13.27;;;;;;;-148.24;100.00;61531.34;4983752;28;20623;-54
2023/01/20 07:29:47;;;;;;;93.82;13.75;;;;;;;-148.24;100.00;61531.34;4977600;28;20032;-54
2023/01/20 07:32:12;;;;;;;70.60;12.32;;;;;;;-148.24;100.00;61531.34;4978602;28;20062;-54
2023/01/20 07:34:38;;;;;;;77.22;13.45;;;;;;;-148.24;100.00;61531.34;4978424;28;20113;-53
2023/01/20 07:37:03;;;;;;;81.57;14.07;;;;;;;-148.24;100.00;61531.34;4980807;28;20444;-57
2023/01/20 07:39:28;;;;;;;71.85;13.35;;;;;;;-148.24;100.00;61531.34;4974696;28;20122;-54
2023/01/20 07:41:54;;;;;;;87.60;14.95;;;;;;;-148.24;100.00;61531.34;4975945;28;20042;-55
2023/01/20 07:44:19;;;;;;;74.40;13.50;;;;;;;-148.24;100.00;61531.34;4979318;28;20034;-56
2023/01/20 07:46:45;;;;;;;97.07;15.13;;;;;;;-148.24;100.00;61531.34;4973666;28;20535;-55
2023/01/20 07:49:10;;;;;;;73.70;13.95;;;;;;;-148.24;100.00;61531.34;4979801;28;20054;-56
2023/01/20 07:51:36;;;;;;;77.40;14.32;;;;;;;-148.24;100.00;61531.34;4978954;28;20674;-57
2023/01/20 07:54:03;;;;;;;84.85;14.50;;;;;;;-148.24;100.00;61531.34;4980153;28;20018;-53
2023/01/20 07:56:29;;;;;;;73.28;14.10;;;;;;;-148.24;100.00;61531.34;4976076;28;20046;-55
2023/01/20 07:58:55;;;;;;;92.63;14.98;;;;;;;-148.24;100.00;61531.34;4969982;28;20069;-56
2023/01/20 08:01:22;;;;;;;84.85;14.75;;;;;;;-148.24;100.00;61531.34;4975526;28;20046;-54
2023/01/20 08:03:48;;;;;;;75.70;14.82;;;;;;;-148.24;100.00;61531.34;4975383;28;20037;-55
2023/01/20 08:06:16;;;;;;;80.38;15.35;;;;;;;-148.24;100.00;61531.34;4974197;28;20042;-57
2023/01/20 08:08:41;;;;;;;65.93;15.27;;;;;;;-148.24;100.00;61531.34;4975715;28;20027;-56
2023/01/20 08:11:09;;;;;;;68.10;12.10;;;;;;;-148.24;100.00;61531.34;4977923;28;20050;-54
2023/01/20 08:13:35;;;;;;;66.40;13.02;;;;;;;-148.24;100.00;61531.34;4979741;28;20046;-53
2023/01/20 08:16:02;;;;;;;92.72;17.40;;;;;;;-148.24;100.00;61531.34;4981954;28;20101;-54
2023/01/20 08:18:28;;;;;;;76.10;16.00;;;;;;;-148.24;100.00;61531.34;4976490;28;20030;-55
2023/01/20 08:20:54;;;;;;;90.50;17.25;;;;;;;-148.24;100.00;61531.34;4975686;28;20800;-56
2023/01/20 08:23:19;;;;;;;88.00;15.77;;;;;;;-148.24;100.00;61531.34;4980407;28;20062;-55
2023/01/20 08:25:44;;;;;;;83.68;17.85;;;;;;;-148.24;100.00;61531.34;4983112;28;20038;-54
2023/01/20 08:28:10;;;;;;;89.00;18.00;;;;;;;-148.24;100.00;61531.34;4983169;28;20029;-55
2023/01/20 08:30:35;;;;;;;88.13;16.60;;;;;;;-148.24;100.00;61531.34;4983252;28;20046;-55
2023/01/20 08:33:01;;;;;;;81.43;16.50;;;;;;;-148.24;100.00;61531.34;4983031;28;20073;-55
2023/01/20 08:35:26;;;;;;;90.13;16.65;;;;;;;-148.24;100.00;61531.34;4979606;28;20378;-53
2023/01/20 08:37:52;;;;;;;87.80;16.35;;;;;;;-148.24;100.00;61531.34;4981977;28;20030;-54
2023/01/20 08:40:17;;;;;;;87.43;16.95;;;;;;;-148.24;100.00;61531.34;4980500;28;20096;-55
2023/01/20 08:42:43;;;;;;;80.88;17.15;;;;;;;-148.24;100.00;61531.34;4982222;28;20038;-54
2023/01/20 08:45:09;;;;;;;83.03;16.25;;;;;;;-148.24;100.00;61531.34;4979982;28;20053;-54
2023/01/20 08:47:35;;;;;;;90.97;18.38;;;;;;;-148.24;100.00;61531.34;4979081;28;20447;-53
2023/01/20 08:50:03;;;;;;;99.00;16.08;;;;;;;-148.24;100.00;61531.34;4979541;28;20072;-55
2023/01/20 08:52:29;;;;;;;86.90;15.88;;;;;;;-148.24;100.00;61531.34;4981498;28;20033;-55
2023/01/20 08:54:54;;;;;;;85.90;16.95;;;;;;;-148.24;100.00;61531.34;4977916;28;20178;-54
2023/01/20 08:57:19;;;;;;;77.65;15.10;;;;;;;-148.24;100.00;61531.34;4976815;28;20093;-53
2023/01/20 08:59:46;;;;;;;90.70;15.30;;;;;;;-148.24;100.00;61531.34;4974282;28;20015;-54
2023/01/20 09:02:11;;;;;;;75.55;14.68;;;;;;;-148.24;100.00;61531.34;4978095;28;20053;-54
2023/01/20 09:04:37;;;;;;;86.93;16.50;;;;;;;-148.24;100.00;61531.34;4979623;28;20026;-54
2023/01/20 09:07:03;;;;;;;80.88;16.08;;;;;;;-148.24;100.00;61531.34;4978273;28;20038;-55
2023/01/20 09:09:28;;;;;;;71.15;17.13;;;;;;;-148.24;100.00;61531.34;4978189;28;20019;-57
2023/01/20 09:11:54;;;;;;;81.68;16.50;;;;;;;-148.24;100.00;61531.34;4979637;28;20739;-54
2023/01/20 09:14:21;;;;;;;94.85;17.92;;;;;;;-148.24;100.00;61531.34;4980222;28;20515;-53
2023/01/20 09:16:47;;;;;;;93.50;15.75;;;;;;;-148.24;100.00;61531.34;4978513;28;20741;-54
2023/01/20 09:19:13;;;;;;;75.35;15.32;;;;;;;-148.24;100.00;61531.34;4980223;28;20097;-55
2023/01/20 09:21:38;;;;;;;78.15;17.27;;;;;;;-148.24;100.00;61531.34;4975344;28;20233;-54
2023/01/20 09:24:04;;;;;;;89.35;15.52;;;;;;;-148.24;100.00;61531.34;4980303;28;20056;-55
2023/01/20 09:26:37;;;;;;;85.95;16.35;;;;;;;-148.24;100.00;61531.34;4977817;28;20066;-53
2023/01/20 09:29:09;;;;;;;95.35;17.30;;;;;;;-148.24;100.00;61531.34;4978597;28;20112;-54
2023/01/20 09:31:39;;;;;;;78.38;16.17;;;;;;;-148.24;100.00;61531.34;4978611;28;20118;-55
2023/01/20 09:34:04;;;;;;;95.93;16.15;;;;;;;-148.24;100.00;61531.34;4978775;28;20022;-53
2023/01/20 09:36:30;;;;;;;77.25;15.35;;;;;;;-148.24;100.00;61531.34;4975741;28;20049;-55
2023/01/20 09:44:45;;;;;;;83.70;15.65;;;;;;;-148.24;100.00;61531.34;4981407;28;20097;-54
2023/01/20 09:47:31;;;;;;;87.65;16.15;;;;;;;-148.24;100.00;61531.34;4976999;28;20540;-53
2023/01/20 09:53:15;;;;;;;88.00;16.52;;;;;;;-148.24;100.00;61531.34;4976126;28;20098;-55
2023/01/20 09:55:46;;;;;;;72.70;15.27;;;;;;;-148.24;100.00;61531.34;4976002;28;20722;-53
2023/01/20 09:58:33;;;;;;;78.20;16.07;;;;;;;-148.24;100.00;61531.34;4975433;28;20069;-52
2023/01/20 10:01:17;;;;;;;77.68;16.25;;;;;;;-148.24;100.00;61531.34;4975899;28;20288;-55
2023/01/20 10:04:03;;;;;;;82.55;16.27;;;;;;;-148.24;100.00;61531.34;4981751;28;20058;-53
2023/01/20 10:06:33;;;;;;;85.85;16.35;;;;;;;-148.24;100.00;61531.34;4979899;28;20034;-56
2023/01/20 10:09:04;;;;;;;84.22;15.38;;;;;;;-148.24;100.00;61531.34;4984983;28;20132;-54
2023/01/20 10:11:36;;;;;;;103.22;17.63;;;;;;;-148.24;100.00;61531.34;4983514;28;20039;-55
2023/01/20 10:14:24;;;;;;;71.55;14.30;;;;;;;-148.24;100.00;61531.34;4978616;28;20022;-54
2023/01/20 10:16:57;;;;;;;79.10;15.98;;;;;;;-148.24;100.00;61531.34;4976287;28;20756;-56
2023/01/20 10:19:41;;;;;;;82.78;14.18;;;;;;;-148.24;100.00;61531.34;4979652;28;20108;-53
2023/01/20 10:22:26;;;;;;;79.05;16.38;;;;;;;-148.24;100.00;61531.34;4977110;28;20031;-56
2023/01/20 10:25:01;;;;;;;85.65;16.27;;;;;;;-148.24;100.00;61531.34;4978413;28;20467;-54
2023/01/20 10:27:30;;;;;;;83.65;17.13;;;;;;;-148.24;100.00;61531.34;4976430;28;20049;-56
2023/01/20 10:30:06;;;;;;;90.28;17.10;;;;;;;-148.24;100.00;61531.34;4981472;28;20032;-54
2023/01/20 10:33:01;;;;;;;77.10;17.42;;;;;;;-148.24;100.00;61531.34;4975728;28;20080;-54
2023/01/20 10:35:30;;;;;;;86.45;16.25;;;;;;;-148.24;100.00;61531.34;4971059;28;20034;-53
2023/01/20 10:37:57;;;;;;;93.43;17.92;;;;;;;-148.24;100.00;61531.34;4976096;28;20026;-57
2023/01/20 10:40:37;;;;;;;85.35;17.08;;;;;;;-148.24;100.00;61531.34;4979653;28;20038;-57
2023/01/20 10:43:12;;;;;;;76.90;16.20;;;;;;;-148.24;100.00;61531.34;4973993;28;20066;-57
2023/01/20 10:46:15;;;;;;;66.38;14.38;;;;;;;-148.24;100.00;61531.34;4976266;28;20044;-54
2023/01/20 10:48:49;;;;;;;82.72;15.55;;;;;;;-148.24;100.00;61531.34;4977526;28;20046;-53
2023/01/20 10:51:39;;;;;;;79.65;15.55;;;;;;;-148.24;100.00;61531.34;4975107;28;20051;-54
2023/01/20 10:54:10;;;;;;;93.72;16.30;;;;;;;-148.24;100.00;61531.34;4974923;28;20028;-55
2023/01/20 10:56:39;;;;;;;76.85;16.23;;;;;;;-148.24;100.00;61531.34;4977087;28;20046;-54
2023/01/20 10:59:13;;;;;;;84.70;15.45;;;;;;;-148.24;100.00;61531.34;4979725;28;20448;-54
2023/01/20 11:01:39;;;;;;;65.45;15.00;;;;;;;-148.24;100.00;61531.34;4978750;28;20030;-56
2023/01/20 11:04:05;;;;;;;80.72;16.33;;;;;;;-148.24;100.00;61531.34;4978134;28;20066;-55
2023/01/20 11:06:31;;;;;;;69.40;14.82;;;;;;;-148.24;100.00;61531.34;4976596;28;20043;-54
2023/01/20 11:09:17;;;;;;;82.50;14.60;;;;;;;-148.24;100.00;61531.34;4980575;28;20800;-54
2023/01/20 11:11:43;;;;;;;81.28;15.30;;;;;;;-148.24;100.00;61531.34;4966904;28;20039;-55